createdAt,value
2019-04-06T00:03:24.498Z,31.95
2019-04-06T00:08:26.094Z,32.08
2019-04-06T00:13:27.665Z,31.82
2019-04-06T00:18:29.035Z,30.52
2019-04-06T00:23:30.579Z,32.03
2019-04-06T00:28:32.090Z,32.67
2019-04-06T00:33:33.707Z,34.95
2019-04-06T00:38:35.113Z,36.08
2019-04-06T00:43:36.600Z,33.45
2019-04-06T00:48:37.966Z,38.02
2019-04-06T00:53:39.441Z,36.93
2019-04-06T00:58:41.052Z,34.65
2019-04-06T01:03:42.396Z,34.23
2019-04-06T01:08:44.081Z,34.23
2019-04-06T01:13:45.653Z,31.85
2019-04-06T01:18:47.091Z,34.15
2019-04-06T01:23:48.661Z,31.87
2019-04-06T01:28:50.194Z,31.52
2019-04-06T01:33:52.116Z,33.23
2019-04-06T01:38:53.773Z,33.67
2019-04-06T01:43:55.512Z,32.85
2019-04-06T01:48:57.597Z,31.85
2019-04-06T01:53:59.306Z,31.52
2019-04-06T01:59:00.644Z,33.90
2019-04-06T02:04:02.000Z,34.15
2019-04-06T02:09:05.210Z,33.02
2019-04-06T02:14:06.537Z,33.70
2019-04-06T02:19:07.873Z,33.98
2019-04-06T02:24:09.333Z,34.85
2019-04-06T02:29:10.667Z,33.13
2019-04-06T02:34:30.715Z,33.48
2019-04-06T02:39:39.597Z,34.92
2019-04-06T02:44:41.164Z,35.63
2019-04-06T02:49:42.646Z,35.15
2019-04-06T02:54:44.022Z,38.00
2019-04-06T02:59:45.717Z,36.40
2019-04-06T03:04:47.385Z,36.75
2019-04-06T03:09:48.984Z,36.65
2019-04-06T03:14:50.843Z,35.52
2019-04-06T03:19:52.547Z,38.20
2019-04-06T03:24:54.072Z,36.13
2019-04-06T03:29:58.213Z,36.42
2019-04-06T03:40:18.165Z,37.55
2019-04-06T03:45:19.506Z,36.50
2019-04-06T03:50:20.911Z,36.45
2019-04-06T03:55:22.549Z,37.53
2019-04-06T04:00:24.214Z,39.33
2019-04-06T04:05:26.110Z,38.67
2019-04-06T04:10:35.032Z,37.73
2019-04-06T04:15:36.655Z,37.45
2019-04-06T04:20:38.156Z,38.00
2019-04-06T04:30:59.664Z,35.68
2019-04-06T04:36:01.521Z,36.23
2019-04-06T04:41:03.291Z,37.08
2019-04-06T04:46:04.776Z,37.93
2019-04-06T04:51:06.279Z,34.55
2019-04-06T04:56:07.704Z,36.58
2019-04-06T05:01:08.998Z,35.98
2019-04-06T05:06:10.424Z,36.73
2019-04-06T05:11:12.084Z,36.28
2019-04-06T05:16:13.794Z,38.92
2019-04-06T05:21:15.118Z,38.83
2019-04-06T05:26:16.701Z,36.68
2019-04-06T05:31:18.568Z,36.35
2019-04-06T05:36:19.879Z,34.98
2019-04-06T05:41:21.229Z,38.15
2019-04-06T05:46:22.558Z,37.17
2019-04-06T05:51:24.759Z,37.55
2019-04-06T05:56:26.256Z,37.20
2019-04-06T06:01:27.813Z,37.40
2019-04-06T06:06:29.358Z,39.23
2019-04-06T06:11:30.761Z,39.78
2019-04-06T06:16:33.007Z,41.05
2019-04-06T06:21:34.451Z,39.92
2019-04-06T06:26:35.860Z,41.77
2019-04-06T06:31:37.426Z,36.98
2019-04-06T06:36:39.124Z,40.75
2019-04-06T06:41:40.507Z,42.48
2019-04-06T06:46:41.948Z,41.55
2019-04-06T06:51:43.378Z,42.45
2019-04-06T06:56:44.859Z,38.25
2019-04-06T07:01:46.161Z,41.80
2019-04-06T07:06:47.652Z,40.28
2019-04-06T07:11:49.153Z,41.65
2019-04-06T07:16:50.845Z,42.60
2019-04-06T07:21:52.504Z,41.13
2019-04-06T07:26:53.778Z,41.92
2019-04-06T07:31:57.149Z,39.80
2019-04-06T07:36:58.669Z,40.55
2019-04-06T07:42:00.038Z,37.65
2019-04-06T07:47:01.623Z,37.78
2019-04-06T07:52:03.236Z,40.67
2019-04-06T07:57:06.192Z,37.10
2019-04-06T08:02:07.851Z,37.63
2019-04-06T08:07:09.328Z,40.28
2019-04-06T08:12:13.389Z,38.75
2019-04-06T08:17:14.865Z,40.33
2019-04-06T08:22:16.272Z,38.05
2019-04-06T08:27:17.910Z,40.67
2019-04-06T08:32:19.237Z,40.43
2019-04-06T08:37:22.381Z,39.13
2019-04-06T08:42:23.858Z,38.63
2019-04-06T08:47:25.594Z,38.60
2019-04-06T08:52:27.102Z,37.48
2019-04-06T08:57:29.843Z,36.00
2019-04-06T09:02:31.858Z,33.80
2019-04-06T09:07:35.173Z,31.87
2019-04-06T09:12:37.554Z,34.18
2019-04-06T09:17:38.931Z,33.10
2019-04-06T09:22:40.875Z,32.10
2019-04-06T09:27:42.691Z,30.97
2019-04-06T09:32:44.052Z,31.70
2019-04-06T09:37:45.612Z,31.33
2019-04-06T09:42:46.928Z,30.60
2019-04-06T09:47:50.685Z,27.45
2019-04-06T09:52:55.109Z,29.12
2019-04-06T09:58:15.353Z,28.15
2019-04-06T10:03:18.806Z,29.85
2019-04-06T10:08:28.347Z,30.70
2019-04-06T10:13:49.851Z,30.32
2019-04-06T10:18:53.304Z,28.23
2019-04-06T10:23:57.061Z,27.27
2019-04-06T10:29:09.304Z,23.77
2019-04-06T10:34:18.750Z,25.27
2019-04-06T10:39:40.040Z,23.50
2019-04-06T10:44:49.418Z,22.90
2019-04-06T10:50:10.855Z,24.25
2019-04-06T10:55:26.146Z,23.22
2019-04-06T11:00:32.576Z,24.55
2019-04-06T11:05:41.834Z,25.48
2019-04-06T11:10:45.166Z,23.42
2019-04-06T11:15:57.513Z,23.40
2019-04-06T11:21:01.129Z,24.27
2019-04-06T11:26:19.369Z,23.15
2019-04-06T11:31:39.359Z,22.30
2019-04-06T11:36:48.859Z,34.95
2019-04-06T11:41:54.578Z,26.87
2019-04-06T11:47:09.663Z,28.50
2019-04-06T11:52:28.269Z,26.02
2019-04-06T11:57:40.586Z,21.05
2019-04-06T12:02:43.892Z,22.25
2019-04-06T12:07:47.132Z,21.70
2019-04-06T12:13:07.066Z,21.15
2019-04-06T12:18:18.395Z,21.02
2019-04-06T12:23:37.736Z,20.80
2019-04-06T12:28:57.727Z,22.22
2019-04-06T12:34:10.568Z,20.68
2019-04-06T12:39:16.233Z,17.52
2019-04-06T12:44:22.278Z,16.50
2019-04-06T12:49:31.487Z,17.20
2019-04-06T12:54:38.607Z,17.35
2019-04-06T12:59:45.033Z,16.27
2019-04-06T13:04:48.775Z,16.85
2019-04-06T13:09:54.822Z,18.45
2019-04-06T13:15:03.968Z,17.37
2019-04-06T13:20:17.449Z,16.57
2019-04-06T13:25:23.603Z,15.98
2019-04-06T13:30:26.874Z,16.45
2019-04-06T13:35:36.088Z,17.92
2019-04-06T13:40:45.148Z,17.02
2019-04-06T13:45:51.534Z,17.12
2019-04-06T13:50:54.922Z,17.52
2019-04-06T13:56:02.102Z,19.17
2019-04-06T14:01:16.266Z,17.85
2019-04-06T14:06:22.617Z,18.05
2019-04-06T14:11:35.312Z,17.73
2019-04-06T14:16:40.417Z,18.50
2019-04-06T14:22:00.310Z,19.87
2019-04-06T14:27:09.095Z,18.95
2019-04-06T14:32:21.351Z,19.48
2019-04-06T14:37:27.478Z,19.80
2019-04-06T14:42:37.499Z,20.45
2019-04-06T14:47:49.860Z,19.60
2019-04-06T14:52:59.319Z,20.97
2019-04-06T14:58:21.178Z,19.85
2019-04-06T15:08:42.306Z,21.33
2019-04-06T15:13:46.831Z,21.68
2019-04-06T15:18:50.226Z,20.50
2019-04-06T15:23:56.299Z,22.62
2019-04-06T15:29:16.136Z,21.70
2019-04-06T15:34:35.868Z,21.75
2019-04-06T15:39:56.011Z,22.85
2019-04-06T15:45:08.573Z,21.60
2019-04-06T15:50:26.955Z,26.02
2019-04-06T15:55:33.453Z,29.15
2019-04-06T16:00:48.520Z,31.90
2019-04-06T16:06:03.917Z,31.73
2019-04-06T16:11:25.707Z,34.20
2019-04-06T16:16:32.092Z,33.53
2019-04-06T16:21:37.522Z,31.62
2019-04-06T16:26:55.993Z,31.80
2019-04-06T16:32:14.248Z,31.95
2019-04-06T16:37:23.583Z,32.75
2019-04-06T16:42:41.942Z,32.53
2019-04-06T16:47:47.909Z,31.82
2019-04-06T16:53:00.352Z,34.43
2019-04-06T16:58:20.265Z,32.85
2019-04-06T17:03:26.469Z,32.45
2019-04-06T17:08:32.550Z,31.68
2019-04-06T17:13:53.684Z,31.35
2019-04-06T17:18:59.758Z,28.87
2019-04-06T17:24:09.362Z,29.75
2019-04-06T17:29:21.864Z,30.57
2019-04-06T17:34:27.755Z,31.10
2019-04-06T17:39:43.609Z,29.37
2019-04-06T17:45:03.583Z,36.20
2019-04-06T17:50:25.776Z,29.63
2019-04-06T17:55:35.217Z,31.80
2019-04-06T18:00:57.213Z,31.55
2019-04-06T18:06:09.904Z,30.30
2019-04-06T18:11:19.345Z,30.92
2019-04-06T18:16:23.291Z,36.00
2019-04-06T18:21:24.688Z,33.28
2019-04-06T18:26:26.706Z,31.87
2019-04-06T18:31:30.177Z,32.20
2019-04-06T18:36:33.630Z,33.80
2019-04-06T18:41:35.129Z,33.50
2019-04-06T18:46:37.109Z,33.63
2019-04-06T18:51:38.618Z,35.65
2019-04-06T18:56:40.152Z,36.40
2019-04-06T19:01:41.642Z,35.73
2019-04-06T19:06:43.219Z,38.33
2019-04-06T19:11:54.262Z,38.35
2019-04-06T19:16:48.356Z,40.92
2019-04-06T19:21:49.786Z,40.58
2019-04-06T19:26:51.125Z,41.40
2019-04-06T19:31:54.403Z,40.95
2019-04-06T19:36:56.216Z,43.08
2019-04-06T19:41:57.663Z,43.70
2019-04-06T19:46:59.715Z,41.28
2019-04-06T19:52:01.551Z,43.55
2019-04-06T19:57:03.663Z,46.23
2019-04-06T20:02:05.435Z,44.08
2019-04-06T20:07:07.041Z,46.53
2019-04-06T20:12:09.139Z,48.33
2019-04-06T20:17:10.514Z,47.38
2019-04-06T20:22:11.993Z,47.15
2019-04-06T20:27:13.720Z,49.53
2019-04-06T20:32:15.906Z,52.20
2019-04-06T20:37:17.561Z,52.35
2019-04-06T20:42:18.930Z,54.35
2019-04-06T20:47:21.547Z,53.80
2019-04-06T20:52:23.071Z,54.98
2019-04-06T20:57:24.448Z,52.20
2019-04-06T21:02:25.872Z,51.98
2019-04-06T21:07:27.371Z,53.38
2019-04-06T21:12:28.724Z,51.48
2019-04-06T21:17:30.143Z,53.20
2019-04-06T21:22:31.597Z,51.28
2019-04-06T21:27:32.993Z,57.75
2019-04-06T21:32:34.473Z,55.43
2019-04-06T21:37:36.043Z,54.13
2019-04-06T21:42:40.883Z,58.78
2019-04-06T21:47:44.158Z,57.83
2019-04-06T21:53:04.593Z,58.92
2019-04-06T21:58:06.078Z,57.15
2019-04-06T22:03:07.622Z,59.50
2019-04-06T22:08:28.207Z,58.35
2019-04-06T22:13:30.002Z,58.00
2019-04-06T22:18:32.778Z,59.95
2019-04-06T22:23:42.023Z,57.15
2019-04-06T22:28:37.969Z,56.40
2019-04-06T22:33:40.994Z,58.87
2019-04-06T22:38:43.336Z,60.35
2019-04-06T22:43:44.801Z,58.30
2019-04-06T22:48:46.223Z,60.38
2019-04-06T22:53:49.607Z,55.95
2019-04-06T22:58:51.563Z,58.05
2019-04-06T23:04:07.581Z,56.75
2019-04-06T23:09:12.185Z,57.08
2019-04-06T23:14:13.837Z,57.40
2019-04-06T23:19:15.382Z,58.20
2019-04-06T23:24:21.627Z,56.92
2019-04-06T23:29:23.387Z,60.40
2019-04-06T23:34:25.838Z,60.30
2019-04-06T23:39:27.406Z,60.38
2019-04-06T23:44:28.688Z,59.88
2019-04-06T23:49:30.125Z,57.55
2019-04-06T23:54:31.756Z,55.63
2019-04-06T23:59:33.061Z,61.33
